Airfield :
LOGIN :

Register | Disclaimer

   EN    FR    IT 

 










Legend :    VFR   Marginal VFR   IFR   Intensive IFR   Very Intensive IFR
Visi :
Ceiling :
>= 8 km
>= 3000ft
5 to 8 km
1000 to 3000 ft
1500m to 5 km
500 to 1000 ft
800 to 1500m
200 to 500 ft
< 800m
< 200 ft
Symbols :   Thunderstorms  Fog  Heavy snow  Heavy precipitations  Wind > 20 kt
SIGMETs :     Misc.  Thunderstorms  Icing  Turbulence  Mountain Waves  Volcanic Ashes






- Airport Elevation : 278 ft
- IATA code : RJK


LDRI - Rijeka

CURRENT METAR :
  • 231730Z 32003KT 9999 FEW050 20/15 Q1016

EXPIRED METARs :
  • 231700Z 31003KT 270V360 9999 FEW050 21/14 Q1015
  • 231630Z 26004KT 230V300 9999 FEW050 22/14 Q1015
  • 231600Z 26004KT 170V310 9999 FEW050 22/13 Q1015
  • 231530Z VRB03KT 9999 FEW050 23/13 Q1015
  • 231500Z 25004KT 200V330 9999 FEW050 23/13 Q1016
  • 231430Z 26004KT 210V310 9999 FEW040 23/14 Q1016
  • 231400Z 35003KT 290V070 9999 FEW040 SCT050 21/14 Q1016
  • 231330Z VRB03KT 9999 FEW040 BKN050 23/13 Q1016
  • 231300Z 27006KT 9999 FEW040 SCT045 21/14 Q1016

TAF TAF LDRI
Valid from the 23 at 18:00 until the 24 at 18:00 UTC


231725Z 2318/2418 VRB02KT 9999 FEW050 TX23/2412Z TN14/2404Z
PROB40
TEMPO 2410/2416 34006KT TS FEW040CB



MET'MAP, your aeronautical weather chart ! - Copyright ORBIFLY December 2007 - Disclaimer

ORBIFLY MET'MAP TEAM :

Programming & Development : Alexandra Zaïnal
Original concept : Baudouin d'Aumeries
Technical & hardware support : Manuel Goepfert
Assistance : Marc-Olivier Méhu




SOURCES & CREDITS :

   NOAA